Brisbane - nearby METAR Reports

YBBN - Brisbane Intl Ar, Australia
Distance from station: NNE 12km
Updated: 19/10/2017 18:30
Mostly cloudy
Mostly cloudy
 Wind from ENE
Wind: ENE 13 km/h
Temperature: 22°C
Dew Point: 16°C
Humidity: 69%
Barometer: 1024 hPa
Clouds: Mostly cloudy
Visibility: 10 km
Cloud details: Few Clouds 853 m
Mostly cloudy 1920 m
2017/10/19 08:30 YBBN 190830Z 07007KT 9999 FEW028 BKN063 22/16 Q1024 NOSIG
YAMB - Amberley, Australia
Distance from station: WSW 41km
Updated: 19/10/2017 18:30
Partly cloudy
Partly cloudy
 Wind from NE
Wind: NE 17 km/h
Temperature: 21°C
Dew Point: 15°C
Humidity: 69%
Barometer: 1023 hPa
Clouds: Partly cloudy
Visibility: 10 km
Cloud details: Partly cloudy 1158 m
Partly cloudy 1737 m
2017/10/19 08:30 YAMB 190830Z 05009KT 9999 SCT038 SCT057 21/15 Q1023 NOSIG RMK USE TAF FOR ARRIVALS AFTER 1000Z
 
YBCG - Coolangatta Aws, Australia
Distance from station: SSE 86km
Updated: 19/10/2017 18:30
Overcast
Overcast
 Wind from NE
Wind: NE 15 km/h
Temperature: 22°C
Dew Point: 14°C
Humidity: 61%
Barometer: 1024 hPa
Clouds: Overcast
Visibility: 10 km
Cloud details: Mostly cloudy 1219 m
Overcast 1737 m
2017/10/19 08:30 YBCG 190830Z AUTO 05008KT 9999 // BKN040 OVC057 22/14 Q1024